»·PEaware :: SWA505 KSLC-KPHX

SWA505 :: KSLC-KPHX

FLIGHT INFORMATION

Flight Status: Arrived
Operator:
Southwest Airlines
More flights by this operator :: More flights under this callsign
Pilot: Anonymous 17611 (17611)
Aircraft: BOEING 737-800
(B738)
More flights by this aircraft type
Origin: KSLC Salt Lake City Intl
United States
Destination: KPHX Phoenix Sky Harbor Intl
United States
More flights between these airports :: More routes between these airports
Route: ZIONZ1 BCE CORKR TENTS BRUSR1
File this flight plan on PilotEdge
Remarks:
Altitude:
(Current/Filed)
35,000ft
Speed:
(Current/Filed)
462kts
Departed: 21-Sep-22 10:55 AM
Arrived: 21-Sep-22 12:13 PM
Distance/Time
Traveled:
441nm/1:18
Distance/Time
To Go:
Arrived

Flight Plot

Page will automatically refresh every two minutes.

Flight plan parsing failed; only flown route is shown


Map Options




Map Legend


Flown Route
Filed Route
Departure Airport
Arrival Airport
Navaid (VOR, NDB)
Fix

Horizontal Profiles

Position Reports

Time Latitude Longitude Heading Altitude Ground
Speed
21-Sep-22 10:20 40.788511 -111.980775 283 4233ft 0kts
21-Sep-22 10:21 40.788511 -111.980775 283 4233ft 0kts
21-Sep-22 10:22 40.788511 -111.980775 283 4233ft 0kts
21-Sep-22 10:23 40.788511 -111.980775 283 4233ft 0kts
21-Sep-22 10:24 40.788511 -111.980775 283 4233ft 0kts
21-Sep-22 10:25 40.788511 -111.980775 283 4261ft 0kts
21-Sep-22 10:26 40.788511 -111.980775 283 4261ft 0kts
21-Sep-22 10:27 40.788511 -111.980775 283 4261ft 0kts
21-Sep-22 10:28 40.788511 -111.980775 283 4261ft 0kts
21-Sep-22 10:29 40.788511 -111.980775 283 4261ft 0kts
21-Sep-22 10:30 40.788511 -111.980775 283 4261ft 0kts
21-Sep-22 10:31 40.788511 -111.980775 283 4261ft 0kts
21-Sep-22 10:32 40.788511 -111.980775 283 4261ft 0kts
21-Sep-22 10:33 40.788511 -111.980775 283 4261ft 0kts
21-Sep-22 10:34 40.788511 -111.980775 283 4261ft 0kts
21-Sep-22 10:35 40.788511 -111.980775 283 4261ft 0kts
21-Sep-22 10:36 40.788511 -111.980775 283 4261ft 0kts
21-Sep-22 10:37 40.788511 -111.980775 283 4261ft 0kts
21-Sep-22 10:38 40.788511 -111.980775 283 4261ft 0kts
21-Sep-22 10:39 40.788511 -111.980775 283 4233ft 0kts
21-Sep-22 10:40 40.788511 -111.980775 283 4233ft 0kts
21-Sep-22 10:41 40.788511 -111.980775 283 4233ft 0kts
21-Sep-22 10:42 40.788429 -111.980299 283 4235ft 2kts
21-Sep-22 10:43 40.788319 -111.979729 284 4235ft 0kts
21-Sep-22 10:45 40.788319 -111.979729 284 4235ft 0kts
21-Sep-22 10:46 40.788319 -111.979729 284 4235ft 0kts
21-Sep-22 10:47 40.788559 -111.979850 353 4235ft 5kts
21-Sep-22 10:48 40.789729 -111.978114 84 4236ft 7kts
21-Sep-22 10:49 40.790044 -111.977105 29 4239ft 14kts
21-Sep-22 10:50 40.796578 -111.977860 355 4231ft 23kts
21-Sep-22 10:51 40.802597 -111.978555 354 4241ft 20kts
21-Sep-22 10:52 40.807305 -111.978752 44 4235ft 0kts
21-Sep-22 10:53 40.807305 -111.978752 44 4235ft 0kts
21-Sep-22 10:54 40.806292 -111.976811 173 4235ft 17kts
21-Sep-22 10:55 40.770082 -111.972217 172 5312ft 195kts
21-Sep-22 10:56 40.708252 -111.959865 170 7079ft 257kts
21-Sep-22 10:57 40.637730 -111.947278 179 9976ft 288kts
21-Sep-22 10:58 40.561259 -111.950329 181 11473ft 250kts
21-Sep-22 10:59 40.490824 -111.951544 182 14533ft 259kts
21-Sep-22 11:00 40.417433 -111.949273 180 17303ft 277kts
21-Sep-22 11:01 40.330268 -111.942974 179 18686ft 334kts
21-Sep-22 11:02 40.235938 -111.942904 189 21072ft 339kts
21-Sep-22 11:03 40.142225 -111.958660 189 23678ft 343kts
21-Sep-22 11:04 40.046435 -111.972799 189 25471ft 351kts
21-Sep-22 11:05 39.948535 -111.987091 189 27168ft 358kts
21-Sep-22 11:06 39.848081 -112.001754 189 28706ft 367kts
21-Sep-22 11:07 39.745456 -112.016686 189 30101ft 375kts
21-Sep-22 11:08 39.640618 -112.031888 190 31266ft 381kts
21-Sep-22 11:09 39.534274 -112.047266 191 32340ft 387kts
21-Sep-22 11:10 39.426697 -112.062713 192 33528ft 387kts
21-Sep-22 11:11 39.320004 -112.077855 192 34500ft 389kts
21-Sep-22 11:12 39.211970 -112.093149 192 34942ft 390kts
21-Sep-22 11:13 39.104279 -112.108337 192 34973ft 392kts
21-Sep-22 11:14 38.996881 -112.123456 192 34970ft 389kts
21-Sep-22 11:15 38.888871 -112.138616 192 34962ft 390kts
21-Sep-22 11:16 38.780811 -112.153714 192 34882ft 389kts
21-Sep-22 11:17 38.672459 -112.168834 192 34998ft 392kts
21-Sep-22 11:18 38.564046 -112.183906 192 35017ft 392kts
21-Sep-22 11:19 38.455472 -112.198961 192 35033ft 394kts
21-Sep-22 11:20 38.347183 -112.213918 192 35032ft 393kts
21-Sep-22 11:21 38.238112 -112.228946 192 35041ft 394kts
21-Sep-22 11:22 38.128807 -112.243959 192 35033ft 395kts
21-Sep-22 11:22 38.037771 -112.256439 192 35043ft 399kts
21-Sep-22 11:24 37.909401 -112.273957 192 35177ft 396kts
21-Sep-22 11:25 37.800028 -112.288853 191 35266ft 396kts
21-Sep-22 11:26 37.690099 -112.303722 191 35290ft 397kts
21-Sep-22 11:27 37.578979 -112.310987 188 35164ft 402kts
21-Sep-22 11:28 37.467178 -112.317513 189 35139ft 402kts
21-Sep-22 11:29 37.354659 -112.324358 189 35063ft 404kts
21-Sep-22 11:29 37.261218 -112.330025 189 35083ft 403kts
21-Sep-22 11:31 37.129877 -112.337954 189 35131ft 404kts
21-Sep-22 11:32 37.017234 -112.344779 189 35158ft 407kts
21-Sep-22 11:32 36.923153 -112.350433 189 35145ft 406kts
21-Sep-22 11:33 36.809940 -112.357237 189 35100ft 408kts
21-Sep-22 11:35 36.677477 -112.365161 188 35041ft 409kts
21-Sep-22 11:35 36.582978 -112.370798 188 35033ft 409kts
21-Sep-22 11:36 36.468885 -112.378053 189 35032ft 410kts
21-Sep-22 11:37 36.354825 -112.386968 189 35032ft 410kts
21-Sep-22 11:39 36.221191 -112.397156 189 35055ft 413kts
21-Sep-22 11:39 36.125310 -112.404431 189 35117ft 413kts
21-Sep-22 11:40 36.010715 -112.413072 188 35170ft 414kts
21-Sep-22 11:41 35.895505 -112.421746 188 35164ft 414kts
21-Sep-22 11:42 35.780378 -112.430386 188 34744ft 410kts
21-Sep-22 11:43 35.666644 -112.438909 188 32122ft 412kts
21-Sep-22 11:44 35.553443 -112.447341 188 30204ft 403kts
21-Sep-22 11:45 35.443346 -112.441984 176 29210ft 402kts
21-Sep-22 11:46 35.330346 -112.420106 176 29200ft 413kts
21-Sep-22 11:47 35.217020 -112.392860 178 29191ft 413kts
21-Sep-22 11:48 35.103222 -112.373705 175 27912ft 408kts
21-Sep-22 11:49 34.992752 -112.349721 174 26372ft 398kts
21-Sep-22 11:50 34.885037 -112.326424 173 25015ft 389kts
21-Sep-22 11:51 34.779374 -112.303259 172 23655ft 381kts
21-Sep-22 11:52 34.676099 -112.280536 172 22254ft 374kts
21-Sep-22 11:53 34.574805 -112.258324 172 20893ft 367kts
21-Sep-22 11:54 34.475355 -112.236560 172 19526ft 358kts
21-Sep-22 11:55 34.381250 -112.213615 170 18055ft 341kts
21-Sep-22 11:56 34.290188 -112.189758 171 16630ft 330kts
21-Sep-22 11:57 34.200962 -112.166681 171 15289ft 326kts
21-Sep-22 11:58 34.112563 -112.143883 170 13957ft 321kts
21-Sep-22 11:59 34.028644 -112.143018 187 12656ft 295kts
21-Sep-22 12:00 33.949035 -112.152427 186 11481ft 285kts
21-Sep-22 12:01 33.870653 -112.164624 191 10328ft 282kts
21-Sep-22 12:02 33.795783 -112.180912 190 9269ft 264kts
21-Sep-22 12:03 33.723840 -112.196127 190 8061ft 256kts
21-Sep-22 12:04 33.657259 -112.210152 190 7105ft 232kts
21-Sep-22 12:05 33.594950 -112.223286 189 6124ft 228kts
21-Sep-22 12:06 33.534293 -112.236324 189 5391ft 213kts
21-Sep-22 12:07 33.477402 -112.248560 190 4719ft 202kts
21-Sep-22 12:08 33.433121 -112.216853 120 4117ft 197kts
21-Sep-22 12:09 33.429013 -112.152571 90 3120ft 193kts
21-Sep-22 12:10 33.428923 -112.091541 90 2200ft 177kts
21-Sep-22 12:11 33.428827 -112.036970 90 1302ft 157kts
21-Sep-22 12:12 33.429493 -112.004698 53 1133ft 13kts
21-Sep-22 12:13 33.429812 -112.004180 58 1134ft 0kts
21-Sep-22 12:14 33.429922 -112.001557 90 1133ft 21kts
21-Sep-22 12:15 33.432954 -111.997961 7 1135ft 13kts
21-Sep-22 12:16 33.433632 -111.997355 77 1137ft 0kts

Navigation Log

Ident Type
Flight plan parsing failed, navigation log unavailable